»·PEaware :: USC243 KFLG-KFTG

USC243 :: KFLG-KFTG

FLIGHT INFORMATION

Flight Status: Arrived
Operator: Unknown
More flights by this operator :: More flights under this callsign
Pilot: Andy P. (22680)
Aircraft: GATES LEARJET LEARJET 35/36
(LJ35)
More flights by this aircraft type
Origin: KFLG Flagstaff Pulliam
United States
Destination: KFTG Front Range
United States
More flights between these airports :: More routes between these airports
Route: +FLG RSK LARKS9
File this flight plan on PilotEdge
Remarks:
Altitude:
(Current/Filed)
37,000ft
Speed:
(Current/Filed)
465kts
Departed: 17-Mar-19 04:32 PM
Arrived: 17-Mar-19 05:40 PM
Distance/Time
Traveled:
439nm/1:08
Distance/Time
To Go:
Arrived

Flight Plot

Page will automatically refresh every two minutes.


Map Options




Map Legend


Flown Route
Filed Route
Departure Airport
Arrival Airport
Navaid (VOR, NDB)
Fix

Horizontal Profiles

Position Reports

Time Latitude Longitude Heading Altitude Ground
Speed
17-Mar-19 16:11 35.136379 -111.676475 225 7013ft 0kts
17-Mar-19 16:12 35.136379 -111.676475 225 7013ft 0kts
17-Mar-19 16:13 35.136379 -111.676475 225 7013ft 0kts
17-Mar-19 16:14 35.136379 -111.676475 225 7013ft 0kts
17-Mar-19 16:15 35.136379 -111.676475 225 7013ft 0kts
17-Mar-19 16:16 35.136379 -111.676475 225 7013ft 0kts
17-Mar-19 16:17 35.136379 -111.676475 225 7013ft 0kts
17-Mar-19 16:18 35.136379 -111.676475 225 7013ft 0kts
17-Mar-19 16:19 35.136379 -111.676475 225 7013ft 0kts
17-Mar-19 16:20 35.136379 -111.676475 225 7013ft 0kts
17-Mar-19 16:20 35.136379 -111.676475 225 7013ft 0kts
17-Mar-19 16:21 35.136379 -111.676475 225 7013ft 0kts
17-Mar-19 16:23 35.136379 -111.676475 225 7013ft 0kts
17-Mar-19 16:23 35.136379 -111.676475 225 7013ft 0kts
17-Mar-19 16:24 35.136379 -111.676475 225 7013ft 0kts
17-Mar-19 16:25 35.136379 -111.676475 225 7013ft 0kts
17-Mar-19 16:26 35.136221 -111.675367 63 7013ft 14kts
17-Mar-19 16:27 35.141238 -111.669863 37 7013ft 17kts
17-Mar-19 16:28 35.146643 -111.664186 43 7013ft 29kts
17-Mar-19 16:29 35.149932 -111.660516 98 7013ft 0kts
17-Mar-19 16:30 35.149531 -111.659877 153 7013ft 9kts
17-Mar-19 16:31 35.128197 -111.682427 222 7650ft 178kts
17-Mar-19 16:32 35.105179 -111.652595 50 10640ft 209kts
17-Mar-19 16:33 35.160479 -111.604557 32 12990ft 277kts
17-Mar-19 16:34 35.214446 -111.533036 61 16310ft 324kts
17-Mar-19 16:35 35.263093 -111.428750 57 19316ft 386kts
17-Mar-19 16:36 35.319817 -111.303494 56 21423ft 442kts
17-Mar-19 16:37 35.381666 -111.175047 61 24917ft 441kts
17-Mar-19 16:38 35.442773 -111.042164 61 27217ft 451kts
17-Mar-19 16:39 35.505088 -110.907228 61 29007ft 458kts
17-Mar-19 16:40 35.567113 -110.772558 61 31116ft 446kts
17-Mar-19 16:41 35.627078 -110.641880 61 33408ft 430kts
17-Mar-19 16:42 35.684414 -110.516445 61 35692ft 410kts
17-Mar-19 16:43 35.739175 -110.396259 60 37247ft 408kts
17-Mar-19 16:44 35.796762 -110.269362 61 37232ft 441kts
17-Mar-19 16:45 35.856196 -110.137768 60 38728ft 429kts
17-Mar-19 16:46 35.914549 -110.008141 60 39249ft 444kts
17-Mar-19 16:47 35.975233 -109.872933 60 39253ft 453kts
17-Mar-19 16:48 36.036374 -109.736075 60 39247ft 457kts
17-Mar-19 16:49 36.097728 -109.597972 60 39265ft 457kts
17-Mar-19 16:50 36.158641 -109.460462 60 39245ft 457kts
17-Mar-19 16:51 36.219612 -109.322378 60 39263ft 457kts
17-Mar-19 16:52 36.280379 -109.184100 60 39248ft 457kts
17-Mar-19 16:53 36.340940 -109.045610 60 39252ft 456kts
17-Mar-19 16:54 36.401270 -108.907108 60 39252ft 456kts
17-Mar-19 16:55 36.461641 -108.767934 61 39253ft 456kts
17-Mar-19 16:56 36.521658 -108.628985 61 39253ft 456kts
17-Mar-19 16:57 36.581499 -108.489854 61 39253ft 457kts
17-Mar-19 16:58 36.641308 -108.350203 61 39248ft 457kts
17-Mar-19 16:59 36.700884 -108.210494 61 39246ft 457kts
17-Mar-19 17:00 36.770987 -108.079807 40 39245ft 454kts
17-Mar-19 17:01 36.872640 -107.986790 35 39250ft 453kts
17-Mar-19 17:02 36.974774 -107.893943 35 39258ft 453kts
17-Mar-19 17:03 37.076221 -107.801617 34 39269ft 450kts
17-Mar-19 17:04 37.177324 -107.709315 35 39268ft 447kts
17-Mar-19 17:05 37.277463 -107.617586 34 39273ft 446kts
17-Mar-19 17:06 37.377607 -107.525544 35 39301ft 446kts
17-Mar-19 17:07 37.477917 -107.433034 35 39302ft 447kts
17-Mar-19 17:08 37.578460 -107.339996 35 39293ft 448kts
17-Mar-19 17:09 37.678757 -107.246863 35 39297ft 448kts
17-Mar-19 17:10 37.778855 -107.153593 35 39332ft 447kts
17-Mar-19 17:11 37.878959 -107.060004 35 39391ft 447kts
17-Mar-19 17:12 37.978878 -106.966251 35 39368ft 448kts
17-Mar-19 17:13 38.079136 -106.871852 34 39410ft 447kts
17-Mar-19 17:14 38.178965 -106.777536 34 39383ft 448kts
17-Mar-19 17:15 38.279148 -106.682553 34 39398ft 448kts
17-Mar-19 17:16 38.379563 -106.587024 34 38542ft 461kts
17-Mar-19 17:17 38.480558 -106.487991 39 36336ft 451kts
17-Mar-19 17:18 38.565457 -106.369024 47 34325ft 457kts
17-Mar-19 17:19 38.647750 -106.244393 47 32270ft 459kts
17-Mar-19 17:20 38.730781 -106.118096 47 30198ft 471kts
17-Mar-19 17:21 38.815744 -105.988359 47 28089ft 476kts
17-Mar-19 17:22 38.900680 -105.858191 47 25977ft 476kts
17-Mar-19 17:23 38.985215 -105.727935 47 23862ft 466kts
17-Mar-19 17:24 39.065267 -105.604114 47 21834ft 440kts
17-Mar-19 17:25 39.142374 -105.484405 47 19895ft 429kts
17-Mar-19 17:26 39.218224 -105.366173 47 17970ft 423kts
17-Mar-19 17:27 39.278345 -105.269249 49 17029ft 302kts
17-Mar-19 17:28 39.333940 -105.184469 46 16990ft 321kts
17-Mar-19 17:29 39.391800 -105.094042 47 16987ft 324kts
17-Mar-19 17:30 39.445177 -105.009951 48 16633ft 315kts
17-Mar-19 17:31 39.501694 -104.923931 39 14585ft 298kts
17-Mar-19 17:32 39.559169 -104.847252 50 12140ft 287kts
17-Mar-19 17:33 39.611098 -104.777696 43 10970ft 241kts
17-Mar-19 17:34 39.653143 -104.717438 47 11126ft 215kts
17-Mar-19 17:35 39.691954 -104.655533 50 11170ft 219kts
17-Mar-19 17:36 39.751411 -104.624290 8 7922ft 214kts
17-Mar-19 17:37 39.793478 -104.599409 78 6176ft 156kts
17-Mar-19 17:38 39.793775 -104.548802 91 5515ft 82kts
17-Mar-19 17:39 39.792978 -104.544461 181 5515ft 5kts
17-Mar-19 17:40 39.790316 -104.545782 265 5515ft 0kts

Navigation Log

Ident Type
Flight plan parsing failed, navigation log unavailable